Time;durP1;ratioP1;P1;durP2;ratioP2;P2;SDS_P1;SDS_P2;PMS_P1;PMS_P2;Temp;Humidity;BMP_temperature;BMP_pressure;BME280_temperature;BME280_humidity;BME280_pressure;Samples;Min_cycle;Max_cycle;Signal;HPM_P1;HPM_P2
2021/03/02 00:01:33;;;;;;;34.47;13.68;;;5.80;99.90;;;;;;5070994;28;20511;-73
2021/03/02 00:04:00;;;;;;;31.08;13.27;;;5.70;99.90;;;;;;5071620;28;20020;-73
2021/03/02 00:06:26;;;;;;;29.63;11.43;;;5.80;99.90;;;;;;5069976;28;20051;-73
2021/03/02 00:08:52;;;;;;;34.22;12.65;;;5.70;99.90;;;;;;5069409;28;20033;-72
2021/03/02 00:11:19;;;;;;;36.63;13.65;;;5.70;99.90;;;;;;5062177;28;20393;-72
2021/03/02 00:13:44;;;;;;;37.97;14.20;;;5.70;99.90;;;;;;5066708;28;20507;-72
2021/03/02 00:16:11;;;;;;;41.70;13.80;;;5.60;99.90;;;;;;5070344;28;20044;-72
2021/03/02 00:18:45;;;;;;;33.72;13.60;;;5.60;99.90;;;;;;5072374;28;20055;-72
2021/03/02 00:21:17;;;;;;;33.38;12.18;;;5.50;99.90;;;;;;5072988;28;20089;-74
2021/03/02 00:23:46;;;;;;;31.23;12.57;;;5.60;99.90;;;;;;5061875;28;20048;-72
2021/03/02 00:26:15;;;;;;;33.83;12.88;;;5.50;99.90;;;;;;5071462;28;20430;-71
2021/03/02 00:28:41;;;;;;;33.92;13.70;;;5.50;99.90;;;;;;5072077;28;20032;-71
2021/03/02 00:31:07;;;;;;;36.63;14.27;;;5.50;99.90;;;;;;5069319;28;20102;-73
2021/03/02 00:33:35;;;;;;;32.08;13.43;;;5.50;99.90;;;;;;5072334;28;20028;-71
2021/03/02 00:36:01;;;;;;;30.17;12.93;;;5.50;99.90;;;;;;5067285;28;20036;-73
2021/03/02 00:38:26;;;;;;;30.42;12.43;;;5.50;99.90;;;;;;5069905;28;20299;-72
2021/03/02 00:40:52;;;;;;;34.42;13.82;;;5.40;99.90;;;;;;5070784;28;20047;-72
2021/03/02 00:43:18;;;;;;;41.10;13.93;;;5.40;99.90;;;;;;5065408;28;20021;-72
2021/03/02 00:45:44;;;;;;;32.83;13.65;;;5.30;99.90;;;;;;5073483;28;20071;-72
2021/03/02 00:48:10;;;;;;;31.98;12.88;;;5.30;99.90;;;;;;5074669;28;20028;-72
2021/03/02 00:50:36;;;;;;;32.13;13.65;;;5.30;99.90;;;;;;5074070;28;20047;-72
2021/03/02 00:53:02;;;;;;;36.58;13.68;;;5.30;99.90;;;;;;5075734;28;20032;-72
2021/03/02 00:55:27;;;;;;;33.10;14.73;;;5.30;99.90;;;;;;5073692;28;20025;-73
2021/03/02 00:57:53;;;;;;;33.88;15.10;;;5.30;99.90;;;;;;5074828;28;20032;-72
2021/03/02 01:00:19;;;;;;;37.53;13.75;;;5.30;99.90;;;;;;5074830;28;20043;-73
2021/03/02 01:02:44;;;;;;;29.58;12.55;;;5.30;99.90;;;;;;5073162;28;20081;-73
2021/03/02 01:05:10;;;;;;;33.85;13.35;;;5.30;99.90;;;;;;5077377;28;20021;-71
2021/03/02 01:07:36;;;;;;;35.00;15.00;;;5.20;99.90;;;;;;5073114;28;20017;-72
2021/03/02 01:10:04;;;;;;;33.47;13.60;;;5.10;99.90;;;;;;5074219;28;20158;-71
2021/03/02 01:12:30;;;;;;;42.22;14.43;;;5.10;99.90;;;;;;5074295;28;20035;-71
2021/03/02 01:14:56;;;;;;;36.42;13.70;;;5.10;99.90;;;;;;5074495;28;20029;-73
2021/03/02 01:17:22;;;;;;;28.80;12.50;;;5.10;99.90;;;;;;5074009;28;20414;-72
2021/03/02 01:19:48;;;;;;;34.03;13.73;;;5.10;99.90;;;;;;5074077;28;20106;-72
2021/03/02 01:22:13;;;;;;;40.90;13.90;;;5.10;99.90;;;;;;5074518;28;20016;-73
2021/03/02 01:24:39;;;;;;;27.60;12.57;;;5.00;99.90;;;;;;5073000;28;20020;-75
2021/03/02 01:27:05;;;;;;;30.08;13.10;;;5.10;99.90;;;;;;5074018;28;20417;-75
2021/03/02 01:29:30;;;;;;;34.85;14.88;;;5.10;99.90;;;;;;5072666;28;20064;-73
2021/03/02 01:31:59;;;;;;;41.13;14.73;;;5.00;99.90;;;;;;5072312;28;20463;-72
2021/03/02 01:34:25;;;;;;;34.97;14.32;;;4.90;99.90;;;;;;5072360;28;20040;-72
2021/03/02 01:36:50;;;;;;;32.80;12.98;;;4.80;99.90;;;;;;5073619;28;20031;-73
2021/03/02 01:39:16;;;;;;;35.50;14.35;;;4.90;99.90;;;;;;5073551;28;20055;-73
2021/03/02 01:41:51;;;;;;;34.35;13.70;;;4.90;99.90;;;;;;5072106;28;20037;-72
2021/03/02 01:44:17;;;;;;;34.53;12.90;;;4.90;99.90;;;;;;5071263;28;20031;-73
2021/03/02 01:46:48;;;;;;;32.15;12.90;;;4.90;99.90;;;;;;5073834;28;20392;-72
2021/03/02 01:49:14;;;;;;;37.55;13.52;;;4.90;99.90;;;;;;5073186;28;20032;-72
2021/03/02 01:51:39;;;;;;;32.50;13.85;;;4.90;99.90;;;;;;5072008;28;20042;-71
2021/03/02 01:54:05;;;;;;;29.13;13.90;;;4.80;99.90;;;;;;5072726;28;20071;-72
2021/03/02 01:56:31;;;;;;;42.03;14.70;;;4.70;99.90;;;;;;5074723;28;20461;-72
2021/03/02 01:58:57;;;;;;;34.22;13.18;;;4.70;99.90;;;;;;5073853;28;20078;-73
2021/03/02 02:01:23;;;;;;;33.05;13.50;;;4.60;99.90;;;;;;5073881;28;20545;-73
2021/03/02 02:04:00;;;;;;;37.08;13.43;;;4.70;99.90;;;;;;5072583;28;20028;-73
2021/03/02 02:06:34;;;;;;;32.63;12.67;;;4.60;99.90;;;;;;5073732;28;20448;-73
2021/03/02 02:09:25;;;;;;;42.92;15.20;;;4.60;99.90;;;;;;5073543;28;20066;-73
2021/03/02 02:12:29;;;;;;;33.38;13.68;;;4.60;99.90;;;;;;5072322;28;20028;-73
2021/03/02 02:15:20;;;;;;;33.63;14.27;;;4.70;99.90;;;;;;5060934;28;20044;-73
2021/03/02 02:17:53;;;;;;;38.08;13.98;;;4.70;99.90;;;;;;5073153;28;20029;-73
2021/03/02 02:20:35;;;;;;;38.85;14.52;;;4.60;99.90;;;;;;5073513;28;20074;-72
2021/03/02 02:23:19;;;;;;;37.58;13.40;;;4.60;99.90;;;;;;5073134;28;20473;-72
2021/03/02 02:26:08;;;;;;;38.17;13.50;;;4.50;99.90;;;;;;5073209;28;20028;-73
2021/03/02 02:28:37;;;;;;;32.58;14.10;;;4.50;99.90;;;;;;5062796;28;20032;-73
2021/03/02 02:31:06;;;;;;;35.67;14.63;;;4.50;99.90;;;;;;5072235;28;20082;-73
2021/03/02 02:33:35;;;;;;;34.85;14.35;;;4.50;99.90;;;;;;5071441;28;20086;-74
2021/03/02 02:36:02;;;;;;;36.30;15.23;;;4.40;99.90;;;;;;5072394;28;20027;-73
2021/03/02 02:38:28;;;;;;;43.20;14.65;;;4.40;99.90;;;;;;5073044;28;20112;-72
2021/03/02 02:40:55;;;;;;;37.00;14.77;;;4.30;99.90;;;;;;5072150;28;20028;-72
2021/03/02 02:43:21;;;;;;;39.70;15.98;;;4.30;99.90;;;;;;5073450;28;20027;-74
2021/03/02 02:45:49;;;;;;;34.70;14.35;;;4.20;99.90;;;;;;5072740;28;20020;-72
2021/03/02 02:48:16;;;;;;;35.67;13.55;;;4.10;99.90;;;;;;5072788;28;20020;-71
2021/03/02 02:50:43;;;;;;;41.55;15.68;;;4.10;99.90;;;;;;5072291;28;20030;-72
2021/03/02 02:53:09;;;;;;;31.00;11.02;;;4.00;99.90;;;;;;5072368;28;20036;-73
2021/03/02 02:55:45;;;;;;;41.78;14.43;;;4.00;99.90;;;;;;5075798;28;20082;-72
2021/03/02 02:58:14;;;;;;;39.92;14.38;;;4.00;99.90;;;;;;5080845;28;20027;-73
2021/03/02 03:00:40;;;;;;;;;;;4.00;99.90;;;;;;5079933;28;20045;-74
2021/03/02 03:03:09;;;;;;;40.20;13.90;;;3.90;99.90;;;;;;5071540;28;19909;-73
2021/03/02 03:05:35;;;;;;;42.20;14.98;;;3.90;99.90;;;;;;5072975;28;20115;-73
2021/03/02 03:08:12;;;;;;;35.80;14.75;;;3.90;99.90;;;;;;5070011;28;20025;-73
2021/03/02 03:10:39;;;;;;;33.03;14.30;;;4.00;99.90;;;;;;5052988;28;20125;-73
2021/03/02 03:13:09;;;;;;;31.40;13.50;;;3.90;99.90;;;;;;5064943;28;20020;-72
2021/03/02 03:15:35;;;;;;;37.95;14.45;;;4.00;99.90;;;;;;5072700;28;20090;-74
2021/03/02 03:18:07;;;;;;;45.35;16.40;;;4.00;99.90;;;;;;5072439;28;20055;-73
2021/03/02 03:20:33;;;;;;;35.88;13.80;;;3.90;99.90;;;;;;5072646;28;20052;-73
2021/03/02 03:22:59;;;;;;;39.45;14.88;;;3.90;99.90;;;;;;5071450;28;20028;-73
2021/03/02 03:25:25;;;;;;;36.10;13.85;;;4.00;99.90;;;;;;5070966;28;20069;-73
2021/03/02 03:27:56;;;;;;;37.67;14.15;;;4.00;99.90;;;;;;5071850;28;20028;-73
2021/03/02 03:30:25;;;;;;;43.13;15.85;;;4.00;99.90;;;;;;5071075;28;20119;-72
2021/03/02 03:32:56;;;;;;;34.67;14.38;;;3.90;99.90;;;;;;5072851;28;20029;-72
2021/03/02 03:35:23;;;;;;;40.50;14.50;;;3.90;99.90;;;;;;5072422;28;20028;-72
2021/03/02 03:37:49;;;;;;;35.33;15.30;;;3.80;99.90;;;;;;5072613;28;20029;-74
2021/03/02 03:40:15;;;;;;;35.78;12.80;;;3.70;99.90;;;;;;5070740;28;20684;-73
2021/03/02 03:42:41;;;;;;;42.35;16.08;;;3.70;99.90;;;;;;5071142;28;20036;-73
2021/03/02 03:45:07;;;;;;;41.13;15.13;;;3.70;99.90;;;;;;5072298;28;20033;-73
2021/03/02 03:47:33;;;;;;;43.60;15.35;;;3.80;99.90;;;;;;5072007;28;20021;-73
2021/03/02 03:49:59;;;;;;;38.70;14.32;;;3.70;99.90;;;;;;5072392;28;20205;-74
2021/03/02 03:52:25;;;;;;;44.60;16.77;;;3.70;99.90;;;;;;5071085;28;20028;-74
2021/03/02 03:54:52;;;;;;;43.97;17.50;;;3.70;99.90;;;;;;5072773;28;20024;-73
2021/03/02 03:57:18;;;;;;;42.58;15.57;;;3.70;99.90;;;;;;5088952;28;20028;-73
2021/03/02 03:59:44;;;;;;;37.25;15.00;;;3.60;99.90;;;;;;5070967;28;20025;-73
2021/03/02 04:02:11;;;;;;;37.90;15.27;;;3.60;99.90;;;;;;5071067;28;20139;-74
2021/03/02 04:04:38;;;;;;;44.60;16.27;;;3.60;99.90;;;;;;5070596;28;20393;-73
2021/03/02 04:07:05;;;;;;;35.97;15.75;;;3.60;99.90;;;;;;5064053;28;20529;-74
2021/03/02 04:09:32;;;;;;;41.55;15.68;;;3.60;99.90;;;;;;5072116;28;20043;-73
2021/03/02 04:11:58;;;;;;;47.17;16.13;;;3.50;99.90;;;;;;5072298;28;20135;-74
2021/03/02 04:14:24;;;;;;;44.10;15.55;;;3.50;99.90;;;;;;5070957;28;20048;-74
2021/03/02 04:16:49;;;;;;;41.78;16.45;;;3.50;99.90;;;;;;5071682;28;20069;-73
2021/03/02 04:19:15;;;;;;;45.42;17.02;;;3.50;99.90;;;;;;5072556;28;20579;-73
2021/03/02 04:21:41;;;;;;;45.05;15.82;;;3.50;99.90;;;;;;5074307;28;20063;-73
2021/03/02 04:24:07;;;;;;;42.97;15.27;;;3.60;99.90;;;;;;5075945;28;20385;-73
2021/03/02 04:26:33;;;;;;;41.67;15.77;;;3.50;99.90;;;;;;5075481;28;20016;-73
2021/03/02 04:28:58;;;;;;;38.00;16.42;;;3.60;99.90;;;;;;5074595;28;20111;-73
2021/03/02 04:31:24;;;;;;;44.15;15.93;;;3.60;99.90;;;;;;5075619;28;20074;-72
2021/03/02 04:33:49;;;;;;;44.10;14.70;;;3.50;99.90;;;;;;5074781;28;20055;-72
2021/03/02 04:36:15;;;;;;;41.17;15.90;;;3.40;99.90;;;;;;5074267;28;20127;-72
2021/03/02 04:38:41;;;;;;;36.80;14.95;;;3.40;99.90;;;;;;5075553;28;20067;-72
2021/03/02 04:41:06;;;;;;;42.97;15.15;;;3.40;99.90;;;;;;5075531;28;20338;-72
2021/03/02 04:43:32;;;;;;;42.50;15.70;;;3.40;99.90;;;;;;5075624;28;20427;-73
2021/03/02 04:45:58;;;;;;;41.92;15.98;;;3.40;99.90;;;;;;5074799;28;20483;-73
2021/03/02 04:48:23;;;;;;;44.90;15.68;;;3.40;99.90;;;;;;5073858;28;20021;-72
2021/03/02 04:50:49;;;;;;;44.78;15.70;;;3.30;99.90;;;;;;5074753;28;20029;-70
2021/03/02 04:53:15;;;;;;;42.30;17.20;;;3.30;99.90;;;;;;5074353;28;20028;-73
2021/03/02 04:55:40;;;;;;;49.10;16.52;;;3.30;99.90;;;;;;5075249;28;20043;-73
2021/03/02 04:58:06;;;;;;;49.47;17.25;;;3.20;99.90;;;;;;5075337;28;20041;-74
2021/03/02 05:00:31;;;;;;;41.70;17.17;;;3.20;99.90;;;;;;5072758;28;20038;-73
2021/03/02 05:02:57;;;;;;;42.92;16.25;;;3.20;99.90;;;;;;5075013;28;20040;-73
2021/03/02 05:05:23;;;;;;;48.78;16.60;;;3.20;99.90;;;;;;5074761;28;20419;-73
2021/03/02 05:07:48;;;;;;;47.65;17.20;;;3.10;99.90;;;;;;5074201;28;20064;-73
2021/03/02 05:10:14;;;;;;;48.97;18.60;;;3.00;99.90;;;;;;5074919;28;20074;-72
2021/03/02 05:12:40;;;;;;;49.58;17.42;;;3.00;99.90;;;;;;5071678;28;20134;-73
2021/03/02 05:15:06;;;;;;;49.25;17.02;;;3.00;99.90;;;;;;5064658;28;20040;-72
2021/03/02 05:17:31;;;;;;;48.72;16.45;;;3.00;99.90;;;;;;5072825;28;20056;-73
2021/03/02 05:19:57;;;;;;;45.95;16.08;;;3.00;99.90;;;;;;5074495;28;20123;-73
2021/03/02 05:22:23;;;;;;;43.47;17.20;;;3.00;99.90;;;;;;5072857;28;20024;-74
2021/03/02 05:24:49;;;;;;;48.40;15.23;;;3.00;99.90;;;;;;5063951;28;20035;-72
2021/03/02 05:27:14;;;;;;;48.08;16.70;;;2.90;99.90;;;;;;5071952;28;20040;-72
2021/03/02 05:29:40;;;;;;;48.67;16.27;;;2.80;99.90;;;;;;5074376;28;20036;-71
2021/03/02 05:32:06;;;;;;;46.33;15.98;;;2.70;99.90;;;;;;5073572;28;20020;-72
2021/03/02 05:34:32;;;;;;;48.72;17.45;;;2.70;99.90;;;;;;5074643;28;20024;-72
2021/03/02 05:36:57;;;;;;;44.17;15.02;;;2.70;99.90;;;;;;5073473;28;20116;-72
2021/03/02 05:39:23;;;;;;;47.28;17.33;;;2.70;99.90;;;;;;5070607;28;20042;-71
2021/03/02 05:41:50;;;;;;;54.17;16.90;;;2.70;99.90;;;;;;5066386;28;20029;-72
2021/03/02 05:44:15;;;;;;;44.78;15.23;;;2.70;99.90;;;;;;5073396;28;20473;-71
2021/03/02 05:46:42;;;;;;;53.42;18.35;;;2.70;99.90;;;;;;5070830;28;20031;-72
2021/03/02 05:49:12;;;;;;;48.80;17.13;;;2.70;99.90;;;;;;5065053;28;20138;-74
2021/03/02 05:51:42;;;;;;;47.50;16.40;;;2.80;99.90;;;;;;5072294;28;20123;-71
2021/03/02 05:54:09;;;;;;;50.22;17.75;;;2.90;99.90;;;;;;5073639;28;20060;-73
2021/03/02 05:56:40;;;;;;;45.03;16.48;;;2.80;99.90;;;;;;5069789;28;20032;-72
2021/03/02 05:59:06;;;;;;;48.50;16.98;;;2.90;99.90;;;;;;5072181;28;20059;-72
2021/03/02 06:01:32;;;;;;;47.85;18.17;;;2.90;99.90;;;;;;5075577;28;20032;-71
2021/03/02 06:03:58;;;;;;;43.72;16.50;;;2.80;99.90;;;;;;5069863;28;20033;-72
2021/03/02 06:06:23;;;;;;;49.13;17.48;;;2.80;99.90;;;;;;5071067;28;20028;-73
2021/03/02 06:08:49;;;;;;;51.90;17.92;;;2.80;99.90;;;;;;5071367;28;20476;-72
2021/03/02 06:11:26;;;;;;;54.75;17.88;;;2.80;99.90;;;;;;5072834;28;20040;-72
2021/03/02 06:13:52;;;;;;;42.67;16.60;;;2.90;99.90;;;;;;5074294;28;20028;-72
2021/03/02 06:16:18;;;;;;;57.03;17.65;;;2.90;99.90;;;;;;5072155;28;20070;-73
2021/03/02 06:18:48;;;;;;;57.38;18.75;;;2.80;99.90;;;;;;5071929;28;20025;-73
2021/03/02 06:21:14;;;;;;;51.95;17.27;;;2.80;99.90;;;;;;5072433;28;20017;-73
2021/03/02 06:23:51;;;;;;;48.65;19.10;;;2.80;99.90;;;;;;5072574;28;20481;-73
2021/03/02 06:26:25;;;;;;;45.65;17.27;;;2.80;99.90;;;;;;5070597;28;20040;-73
2021/03/02 06:28:56;;;;;;;51.42;18.85;;;2.80;99.90;;;;;;5071124;28;20046;-73
2021/03/02 06:31:45;;;;;;;51.58;19.52;;;2.80;99.90;;;;;;5070996;28;20021;-74
2021/03/02 06:34:17;;;;;;;51.83;18.45;;;2.80;99.90;;;;;;5072404;28;20071;-73
2021/03/02 06:36:54;;;;;;;49.83;17.15;;;2.80;99.90;;;;;;5072680;28;20025;-74
2021/03/02 06:39:29;;;;;;;51.05;18.88;;;2.80;99.90;;;;;;5070629;28;20041;-72
2021/03/02 06:42:21;;;;;;;50.65;18.00;;;2.70;99.90;;;;;;5067678;28;20498;-73
2021/03/02 06:44:52;;;;;;;55.08;18.65;;;2.70;99.90;;;;;;5058998;28;20032;-73
2021/03/02 06:47:39;;;;;;;59.17;19.73;;;2.70;99.90;;;;;;5069534;28;20028;-73
2021/03/02 06:50:12;;;;;;;55.65;18.92;;;2.70;99.90;;;;;;5071026;28;20016;-73
2021/03/02 06:52:40;;;;;;;62.85;21.17;;;2.80;99.90;;;;;;5072042;28;20029;-73
2021/03/02 06:55:14;;;;;;;53.50;18.00;;;2.80;99.90;;;;;;5072219;28;20044;-73
2021/03/02 06:57:40;;;;;;;52.35;17.90;;;2.90;99.90;;;;;;5072069;28;20618;-73
2021/03/02 07:00:06;;;;;;;54.67;19.10;;;3.00;99.90;;;;;;5071714;28;20034;-73
2021/03/02 07:02:37;;;;;;;47.88;17.58;;;3.10;99.90;;;;;;5072914;28;20404;-73
2021/03/02 07:05:06;;;;;;;51.97;17.45;;;3.10;99.90;;;;;;5072520;28;20021;-72
2021/03/02 07:07:32;;;;;;;55.55;17.67;;;3.20;99.90;;;;;;5070481;28;20028;-73
2021/03/02 07:09:58;;;;;;;51.65;18.27;;;3.30;99.90;;;;;;5070208;28;20025;-73
2021/03/02 07:12:24;;;;;;;52.70;18.23;;;3.40;99.90;;;;;;5069944;28;20124;-72
2021/03/02 07:14:50;;;;;;;47.70;17.63;;;3.40;99.90;;;;;;5070824;28;20441;-73
2021/03/02 07:17:15;;;;;;;40.47;16.02;;;3.50;99.90;;;;;;5069769;28;20031;-73
2021/03/02 07:19:41;;;;;;;41.72;17.48;;;3.60;99.90;;;;;;5070617;28;20365;-73
2021/03/02 07:22:10;;;;;;;43.67;16.90;;;3.60;99.90;;;;;;5070519;28;20016;-73
2021/03/02 07:24:39;;;;;;;48.72;16.77;;;3.70;99.90;;;;;;5071775;28;20028;-73
2021/03/02 07:27:08;;;;;;;49.15;17.60;;;3.80;99.90;;;;;;5070411;28;20492;-72
2021/03/02 07:29:34;;;;;;;46.25;17.17;;;3.80;99.90;;;;;;5071387;28;20047;-71
2021/03/02 07:32:02;;;;;;;48.17;18.63;;;3.80;99.90;;;;;;5072665;28;20044;-72
2021/03/02 07:34:28;;;;;;;;;;;3.90;99.90;;;;;;5072764;28;20043;-72
2021/03/02 07:36:53;;;;;;;45.00;15.90;;;3.90;99.90;;;;;;5071298;28;19908;-72
2021/03/02 07:39:21;;;;;;;39.78;17.50;;;4.00;99.90;;;;;;5072303;28;20536;-74
2021/03/02 07:41:48;;;;;;;46.67;16.48;;;4.10;99.90;;;;;;5072923;28;20440;-74
2021/03/02 07:44:15;;;;;;;43.50;15.77;;;4.10;99.90;;;;;;5072421;28;20055;-74
2021/03/02 07:46:41;;;;;;;40.30;16.40;;;4.10;99.90;;;;;;5072253;28;20021;-74
2021/03/02 07:49:27;;;;;;;42.90;16.60;;;4.20;99.90;;;;;;5072600;28;20028;-74
2021/03/02 07:52:17;;;;;;;45.55;16.15;;;4.20;99.90;;;;;;5071902;28;20404;-73
2021/03/02 07:54:45;;;;;;;43.05;14.52;;;4.30;99.90;;;;;;5073813;28;20518;-74
2021/03/02 07:57:13;;;;;;;40.95;16.58;;;4.40;99.90;;;;;;5076745;28;20047;-73
2021/03/02 07:59:38;;;;;;;39.90;15.65;;;4.50;99.90;;;;;;5072715;28;20145;-73
2021/03/02 08:02:21;;;;;;;39.45;15.15;;;4.60;99.90;;;;;;5081477;28;20509;-74
2021/03/02 08:04:48;;;;;;;44.38;16.25;;;4.70;99.90;;;;;;5077543;28;20124;-75
2021/03/02 08:07:27;;;;;;;36.63;15.00;;;4.90;99.90;;;;;;5077100;28;20024;-72
2021/03/02 08:09:58;;;;;;;45.25;16.27;;;5.00;99.90;;;;;;5071855;28;20034;-75
2021/03/02 08:12:23;;;;;;;39.78;15.57;;;5.10;99.90;;;;;;5074398;28;20429;-74
2021/03/02 08:14:49;;;;;;;34.20;14.43;;;5.30;99.90;;;;;;5075622;28;20124;-74
2021/03/02 08:17:23;;;;;;;30.90;13.50;;;5.40;99.90;;;;;;5073138;28;20052;-74
2021/03/02 08:20:06;;;;;;;39.03;14.70;;;5.60;99.90;;;;;;5071600;28;20028;-72
2021/03/02 08:22:33;;;;;;;44.05;15.55;;;5.70;99.90;;;;;;5071487;28;20477;-73
2021/03/02 08:25:02;;;;;;;39.47;14.45;;;5.80;99.90;;;;;;5070561;28;20692;-74
2021/03/02 08:27:49;;;;;;;31.55;13.68;;;6.00;99.90;;;;;;5075555;28;20013;-73
2021/03/02 08:30:36;;;;;;;35.15;13.95;;;6.10;99.90;;;;;;5075737;28;20111;-75
2021/03/02 08:33:11;;;;;;;36.25;14.18;;;6.30;99.90;;;;;;5071023;28;20030;-73
2021/03/02 08:35:39;;;;;;;34.08;12.95;;;6.50;99.90;;;;;;5072682;28;20078;-73
2021/03/02 08:38:10;;;;;;;28.45;12.38;;;6.70;99.90;;;;;;5070770;28;20029;-74
2021/03/02 08:40:35;;;;;;;44.03;15.75;;;6.90;99.90;;;;;;5071097;28;20556;-72
2021/03/02 08:43:07;;;;;;;26.90;11.65;;;7.00;99.90;;;;;;5068377;28;20111;-73
2021/03/02 08:45:35;;;;;;;27.60;12.63;;;7.20;99.90;;;;;;5072017;28;20100;-72
2021/03/02 08:48:31;;;;;;;29.60;12.48;;;7.30;99.90;;;;;;5075819;28;20070;-73
2021/03/02 08:51:02;;;;;;;25.45;11.57;;;7.50;99.90;;;;;;5056187;28;20041;-73
2021/03/02 08:53:38;;;;;;;31.17;13.55;;;7.60;99.90;;;;;;5068095;28;20077;-72
2021/03/02 08:56:17;;;;;;;33.28;10.10;;;7.80;99.90;;;;;;5058139;28;20025;-73
2021/03/02 08:58:44;;;;;;;24.02;11.05;;;8.00;99.90;;;;;;5070945;28;20040;-72
2021/03/02 09:01:13;;;;;;;21.17;8.47;;;8.20;99.90;;;;;;5072521;28;20044;-74
2021/03/02 09:03:40;;;;;;;23.65;10.23;;;8.30;99.90;;;;;;5073896;28;20017;-73
2021/03/02 09:06:25;;;;;;;18.43;8.43;;;8.50;99.90;;;;;;5070667;28;20024;-72
2021/03/02 09:08:56;;;;;;;23.48;9.20;;;8.70;99.90;;;;;;5072769;28;20054;-72
2021/03/02 09:11:50;;;;;;;22.70;9.85;;;8.90;99.90;;;;;;5072631;28;20036;-73
2021/03/02 09:14:17;;;;;;;21.98;8.82;;;9.10;99.90;;;;;;5074354;28;20032;-75
2021/03/02 09:16:47;;;;;;;21.67;8.90;;;9.30;99.90;;;;;;5072843;28;20032;-72
2021/03/02 09:19:21;;;;;;;23.08;8.90;;;9.30;99.90;;;;;;5067206;28;20044;-73
2021/03/02 09:22:12;;;;;;;17.35;8.27;;;9.40;99.90;;;;;;5070615;28;20446;-72
2021/03/02 09:24:39;;;;;;;18.48;9.40;;;9.50;99.90;;;;;;5064323;28;20048;-75
2021/03/02 09:27:06;;;;;;;15.60;7.80;;;9.70;99.90;;;;;;5071735;28;20025;-73
2021/03/02 09:29:48;;;;;;;16.30;8.32;;;9.80;99.90;;;;;;5071620;28;20024;-72
2021/03/02 09:32:29;;;;;;;19.23;8.57;;;9.90;99.90;;;;;;5073020;28;20032;-72
2021/03/02 09:35:00;;;;;;;17.75;9.13;;;9.90;99.90;;;;;;5071777;28;20047;-71
2021/03/02 09:37:26;;;;;;;19.73;9.35;;;10.10;99.90;;;;;;5068845;28;20056;-77
2021/03/02 09:39:54;;;;;;;21.67;9.65;;;10.20;99.90;;;;;;5071156;28;20044;-71
2021/03/02 09:42:23;;;;;;;23.00;9.45;;;10.30;99.90;;;;;;5065088;28;20025;-74
2021/03/02 09:44:52;;;;;;;16.23;8.63;;;10.40;99.90;;;;;;5071235;28;20039;-81
2021/03/02 09:47:25;;;;;;;14.45;8.27;;;10.50;99.90;;;;;;5071977;28;20020;-73
2021/03/02 09:50:00;;;;;;;18.17;8.70;;;10.60;99.90;;;;;;5072688;28;20032;-72
2021/03/02 09:52:36;;;;;;;16.42;7.45;;;10.80;99.90;;;;;;5071950;28;20035;-76
2021/03/02 09:55:12;;;;;;;13.10;7.88;;;10.90;99.90;;;;;;5070959;28;20381;-73
2021/03/02 09:58:11;;;;;;;16.20;7.40;;;11.00;99.90;;;;;;5070718;28;20025;-72
2021/03/02 10:00:45;;;;;;;13.90;7.93;;;11.10;99.90;;;;;;5071020;28;20021;-73
2021/03/02 10:03:37;;;;;;;16.67;9.05;;;11.10;99.90;;;;;;5069709;28;20098;-72
2021/03/02 10:06:05;;;;;;;16.42;8.48;;;11.20;99.90;;;;;;5061418;28;20032;-72
2021/03/02 10:08:37;;;;;;;16.17;8.35;;;11.20;99.90;;;;;;5069355;28;20054;-73
2021/03/02 10:11:10;;;;;;;14.60;7.38;;;11.30;99.90;;;;;;5069280;28;20043;-73
2021/03/02 10:13:57;;;;;;;17.48;8.02;;;11.40;99.90;;;;;;5069142;28;20119;-72
2021/03/02 10:16:35;;;;;;;22.60;8.13;;;11.30;99.90;;;;;;5070145;28;20063;-82
2021/03/02 10:19:01;;;;;;;15.23;7.60;;;11.40;99.90;;;;;;5069859;28;20477;-74
2021/03/02 10:21:36;;;;;;;18.90;7.80;;;11.50;99.90;;;;;;5069494;28;20032;-73
2021/03/02 10:24:02;;;;;;;18.00;8.38;;;11.60;99.90;;;;;;5071372;28;20102;-73
2021/03/02 10:26:35;;;;;;;15.63;7.15;;;11.70;99.90;;;;;;5069831;28;20517;-74
2021/03/02 10:29:03;;;;;;;16.50;7.90;;;11.80;99.90;;;;;;5070078;28;20051;-71
2021/03/02 10:31:30;;;;;;;15.60;8.32;;;11.90;99.90;;;;;;5061094;28;20032;-73
2021/03/02 10:33:55;;;;;;;17.20;7.55;;;12.10;99.90;;;;;;5071117;28;20025;-75
2021/03/02 10:36:29;;;;;;;14.07;7.15;;;12.20;99.90;;;;;;5070852;28;20082;-73
2021/03/02 10:38:57;;;;;;;16.35;7.15;;;12.40;99.90;;;;;;5068766;28;20435;-73
2021/03/02 10:41:25;;;;;;;16.92;7.53;;;12.50;99.90;;;;;;5069744;28;20020;-72
2021/03/02 10:43:52;;;;;;;12.18;7.25;;;12.40;99.90;;;;;;5072712;28;20476;-72
2021/03/02 10:46:19;;;;;;;14.10;7.87;;;12.40;99.90;;;;;;5071810;28;20020;-72
2021/03/02 10:48:46;;;;;;;13.32;7.60;;;12.40;99.90;;;;;;5072521;28;20684;-71
2021/03/02 10:51:12;;;;;;;15.90;7.50;;;12.40;99.90;;;;;;5073612;28;20028;-72
2021/03/02 10:53:38;;;;;;;14.85;7.38;;;12.40;99.90;;;;;;5070618;28;20376;-73
2021/03/02 10:56:04;;;;;;;15.07;7.57;;;12.50;99.90;;;;;;5072959;28;20033;-70
2021/03/02 10:58:30;;;;;;;14.25;7.72;;;12.50;99.90;;;;;;5070791;28;20028;-72
2021/03/02 11:00:56;;;;;;;17.60;7.95;;;12.60;99.90;;;;;;5067572;28;20017;-72
2021/03/02 11:03:23;;;;;;;18.02;8.38;;;12.70;99.90;;;;;;5070398;28;20384;-73
2021/03/02 11:05:50;;;;;;;15.13;7.73;;;12.80;99.90;;;;;;5068635;28;20044;-71
2021/03/02 11:08:16;;;;;;;14.98;8.05;;;12.80;99.90;;;;;;5065700;28;20416;-72
2021/03/02 11:10:41;;;;;;;17.08;8.38;;;12.80;99.90;;;;;;5068833;28;20397;-72
2021/03/02 11:13:07;;;;;;;12.95;7.45;;;12.80;99.90;;;;;;5068815;28;20020;-71
2021/03/02 11:15:33;;;;;;;16.67;8.73;;;12.90;99.90;;;;;;5064666;28;20024;-72
2021/03/02 11:17:58;;;;;;;12.73;7.70;;;13.00;99.90;;;;;;5068553;28;20025;-72
2021/03/02 11:20:24;;;;;;;14.23;7.75;;;13.20;99.90;;;;;;5071543;28;20012;-74
2021/03/02 11:22:49;;;;;;;12.85;7.55;;;13.30;99.90;;;;;;5064500;28;20032;-73
2021/03/02 11:25:18;;;;;;;15.63;7.80;;;13.30;99.90;;;;;;5063144;28;20025;-72
2021/03/02 11:27:47;;;;;;;16.33;7.95;;;13.40;99.90;;;;;;5065543;28;20465;-72
2021/03/02 11:30:14;;;;;;;15.40;8.05;;;13.50;99.90;;;;;;5071301;28;20024;-73
2021/03/02 11:32:41;;;;;;;14.07;7.67;;;13.70;99.90;;;;;;5069200;28;20017;-73
2021/03/02 11:35:07;;;;;;;14.40;7.43;;;13.80;99.90;;;;;;5064847;28;20025;-71
2021/03/02 11:37:35;;;;;;;14.18;7.40;;;13.70;99.90;;;;;;5069253;28;20380;-72
2021/03/02 11:40:01;;;;;;;17.13;8.48;;;13.70;99.90;;;;;;5067399;28;20064;-72
2021/03/02 11:42:26;;;;;;;13.18;8.00;;;13.70;99.90;;;;;;5068076;28;20071;-73
2021/03/02 11:44:52;;;;;;;12.95;7.70;;;13.70;99.90;;;;;;5070482;28;20462;-72
2021/03/02 11:47:17;;;;;;;14.48;7.80;;;13.80;99.90;;;;;;5068588;28;20037;-72
2021/03/02 11:49:43;;;;;;;12.57;7.20;;;13.80;99.90;;;;;;5067141;28;20100;-73
2021/03/02 11:52:09;;;;;;;14.90;7.70;;;14.00;99.90;;;;;;5062483;28;20037;-75
2021/03/02 11:54:34;;;;;;;17.00;8.10;;;14.10;99.90;;;;;;5067346;28;20366;-71
2021/03/02 11:57:00;;;;;;;15.68;8.52;;;14.30;99.90;;;;;;5069441;28;20441;-73
2021/03/02 11:59:25;;;;;;;15.38;7.43;;;14.30;99.90;;;;;;5067810;28;20107;-73
2021/03/02 12:01:51;;;;;;;19.23;9.30;;;14.40;99.90;;;;;;5064932;28;20049;-73
2021/03/02 12:04:16;;;;;;;12.43;7.47;;;14.50;99.90;;;;;;5058801;28;20055;-74
2021/03/02 12:06:42;;;;;;;15.68;8.07;;;14.60;99.90;;;;;;5066198;28;20037;-74
2021/03/02 12:09:08;;;;;;;19.60;9.52;;;14.80;99.90;;;;;;5066327;28;20092;-73
2021/03/02 12:11:33;;;;;;;13.45;7.93;;;15.00;99.90;;;;;;5069279;28;20028;-73
2021/03/02 12:13:59;;;;;;;13.38;7.82;;;15.10;99.90;;;;;;5068457;28;20074;-73
2021/03/02 12:16:25;;;;;;;17.42;8.85;;;15.20;99.90;;;;;;5069180;28;20093;-72
2021/03/02 12:18:50;;;;;;;16.17;8.25;;;15.20;99.80;;;;;;5066212;28;20453;-72
2021/03/02 12:21:16;;;;;;;19.50;7.93;;;15.20;99.40;;;;;;5065845;28;20025;-72
2021/03/02 12:23:41;;;;;;;15.32;8.30;;;15.20;99.80;;;;;;5066142;28;20051;-73
2021/03/02 12:26:07;;;;;;;23.20;7.93;;;15.40;99.40;;;;;;5065024;28;20078;-71
2021/03/02 12:28:33;;;;;;;18.55;8.82;;;15.50;99.00;;;;;;5067881;28;20455;-74
2021/03/02 12:30:58;;;;;;;15.55;7.78;;;15.60;98.40;;;;;;5069414;28;20100;-74
2021/03/02 12:33:24;;;;;;;21.58;7.57;;;15.80;98.90;;;;;;5070304;28;20029;-72
2021/03/02 12:35:50;;;;;;;14.95;7.60;;;15.90;98.10;;;;;;5063465;28;20477;-74
2021/03/02 12:38:16;;;;;;;18.10;8.48;;;16.00;97.70;;;;;;5065210;28;20054;-75
2021/03/02 12:40:42;;;;;;;16.08;7.35;;;16.00;98.00;;;;;;5079671;28;20029;-74
2021/03/02 12:43:08;;;;;;;13.80;7.60;;;16.10;97.50;;;;;;5069725;28;20151;-75
2021/03/02 12:45:34;;;;;;;16.15;7.97;;;16.10;97.00;;;;;;5068194;28;20129;-74
2021/03/02 12:47:59;;;;;;;12.10;7.20;;;16.10;96.30;;;;;;5069285;28;20029;-75